sensor_id;sensor_type;location;lat;lon;timestamp;pressure;altitude;pressure_sealevel;temperature
11424;BMP180;5768;51.476;7.210;2022-08-01T00:00:28;100300.00;;;22.30
11424;BMP180;5768;51.476;7.210;2022-08-01T00:03:31;100306.00;;;22.40
11424;BMP180;5768;51.476;7.210;2022-08-01T00:06:33;100303.00;;;22.40
11424;BMP180;5768;51.476;7.210;2022-08-01T00:09:35;100301.00;;;22.40
11424;BMP180;5768;51.476;7.210;2022-08-01T00:12:40;100297.00;;;22.40
11424;BMP180;5768;51.476;7.210;2022-08-01T00:15:43;100306.00;;;22.40
11424;BMP180;5768;51.476;7.210;2022-08-01T00:18:45;100300.00;;;22.30
11424;BMP180;5768;51.476;7.210;2022-08-01T00:21:48;100296.00;;;22.30
11424;BMP180;5768;51.476;7.210;2022-08-01T00:24:50;100302.00;;;22.30
11424;BMP180;5768;51.476;7.210;2022-08-01T00:27:54;100301.00;;;22.40
11424;BMP180;5768;51.476;7.210;2022-08-01T00:30:56;100301.00;;;22.30
11424;BMP180;5768;51.476;7.210;2022-08-01T00:33:59;100298.00;;;22.30
11424;BMP180;5768;51.476;7.210;2022-08-01T00:37:01;100293.00;;;22.30
11424;BMP180;5768;51.476;7.210;2022-08-01T00:40:05;100300.00;;;22.30
11424;BMP180;5768;51.476;7.210;2022-08-01T00:43:09;100304.00;;;22.30
11424;BMP180;5768;51.476;7.210;2022-08-01T00:46:12;100303.00;;;22.30
11424;BMP180;5768;51.476;7.210;2022-08-01T00:49:14;100302.00;;;22.30
11424;BMP180;5768;51.476;7.210;2022-08-01T00:52:17;100290.00;;;22.30
11424;BMP180;5768;51.476;7.210;2022-08-01T00:55:20;100291.00;;;22.30
11424;BMP180;5768;51.476;7.210;2022-08-01T00:58:24;100293.00;;;22.20
11424;BMP180;5768;51.476;7.210;2022-08-01T01:01:29;100305.00;;;22.30
11424;BMP180;5768;51.476;7.210;2022-08-01T01:04:32;100301.00;;;22.20
11424;BMP180;5768;51.476;7.210;2022-08-01T01:07:39;100301.00;;;22.20
11424;BMP180;5768;51.476;7.210;2022-08-01T01:10:51;100288.00;;;22.30
11424;BMP180;5768;51.476;7.210;2022-08-01T01:14:00;100289.00;;;22.20
11424;BMP180;5768;51.476;7.210;2022-08-01T01:17:07;100291.00;;;22.20
11424;BMP180;5768;51.476;7.210;2022-08-01T01:20:14;100290.00;;;22.30
11424;BMP180;5768;51.476;7.210;2022-08-01T01:23:29;100288.00;;;22.30
11424;BMP180;5768;51.476;7.210;2022-08-01T01:26:40;100288.00;;;22.30
11424;BMP180;5768;51.476;7.210;2022-08-01T01:29:48;100288.00;;;22.30
11424;BMP180;5768;51.476;7.210;2022-08-01T01:32:52;100288.00;;;22.30
11424;BMP180;5768;51.476;7.210;2022-08-01T01:35:59;100289.00;;;22.30
11424;BMP180;5768;51.476;7.210;2022-08-01T01:39:03;100300.00;;;22.30
11424;BMP180;5768;51.476;7.210;2022-08-01T01:42:06;100297.00;;;22.30
11424;BMP180;5768;51.476;7.210;2022-08-01T01:45:11;100298.00;;;22.30
11424;BMP180;5768;51.476;7.210;2022-08-01T01:48:16;100299.00;;;22.40
11424;BMP180;5768;51.476;7.210;2022-08-01T01:51:22;100296.00;;;22.40
11424;BMP180;5768;51.476;7.210;2022-08-01T01:54:31;100305.00;;;22.30
11424;BMP180;5768;51.476;7.210;2022-08-01T01:57:40;100309.00;;;22.30
11424;BMP180;5768;51.476;7.210;2022-08-01T02:00:46;100306.00;;;22.40
11424;BMP180;5768;51.476;7.210;2022-08-01T02:03:49;100301.00;;;22.40
11424;BMP180;5768;51.476;7.210;2022-08-01T02:06:55;100300.00;;;22.30
11424;BMP180;5768;51.476;7.210;2022-08-01T02:09:59;100298.00;;;22.30
11424;BMP180;5768;51.476;7.210;2022-08-01T02:13:04;100296.00;;;22.20
11424;BMP180;5768;51.476;7.210;2022-08-01T02:16:09;100306.00;;;22.20
11424;BMP180;5768;51.476;7.210;2022-08-01T02:19:13;100294.00;;;22.10
11424;BMP180;5768;51.476;7.210;2022-08-01T02:22:19;100297.00;;;22.10
11424;BMP180;5768;51.476;7.210;2022-08-01T02:25:25;100298.00;;;22.10
11424;BMP180;5768;51.476;7.210;2022-08-01T02:28:30;100295.00;;;22.10
11424;BMP180;5768;51.476;7.210;2022-08-01T02:31:39;100303.00;;;22.20
11424;BMP180;5768;51.476;7.210;2022-08-01T02:34:47;100299.00;;;22.10
11424;BMP180;5768;51.476;7.210;2022-08-01T02:37:50;100299.00;;;22.10
11424;BMP180;5768;51.476;7.210;2022-08-01T02:40:56;100292.00;;;22.10
11424;BMP180;5768;51.476;7.210;2022-08-01T02:44:03;100292.00;;;22.10
11424;BMP180;5768;51.476;7.210;2022-08-01T02:47:08;100290.00;;;22.10
11424;BMP180;5768;51.476;7.210;2022-08-01T02:50:13;100291.00;;;22.10
11424;BMP180;5768;51.476;7.210;2022-08-01T02:53:20;100288.00;;;22.10
11424;BMP180;5768;51.476;7.210;2022-08-01T02:56:24;100290.00;;;22.00
11424;BMP180;5768;51.476;7.210;2022-08-01T02:59:37;100282.00;;;22.00
11424;BMP180;5768;51.476;7.210;2022-08-01T03:02:43;100277.00;;;22.00
11424;BMP180;5768;51.476;7.210;2022-08-01T03:05:47;100279.00;;;22.10
11424;BMP180;5768;51.476;7.210;2022-08-01T03:08:50;100282.00;;;22.10
11424;BMP180;5768;51.476;7.210;2022-08-01T03:11:53;100288.00;;;22.10
11424;BMP180;5768;51.476;7.210;2022-08-01T03:14:58;100289.00;;;22.20
11424;BMP180;5768;51.476;7.210;2022-08-01T03:18:05;100296.00;;;22.20
11424;BMP180;5768;51.476;7.210;2022-08-01T03:21:09;100294.00;;;22.20
11424;BMP180;5768;51.476;7.210;2022-08-01T03:24:14;100299.00;;;22.20
11424;BMP180;5768;51.476;7.210;2022-08-01T03:27:19;100296.00;;;22.10
11424;BMP180;5768;51.476;7.210;2022-08-01T03:30:24;100307.00;;;22.10
11424;BMP180;5768;51.476;7.210;2022-08-01T03:33:29;100312.00;;;22.10
11424;BMP180;5768;51.476;7.210;2022-08-01T03:36:36;100305.00;;;22.00
11424;BMP180;5768;51.476;7.210;2022-08-01T03:39:43;100316.00;;;22.00
11424;BMP180;5768;51.476;7.210;2022-08-01T03:42:49;100316.00;;;22.00
11424;BMP180;5768;51.476;7.210;2022-08-01T03:45:55;100317.00;;;22.00
11424;BMP180;5768;51.476;7.210;2022-08-01T03:49:06;100318.00;;;22.00
11424;BMP180;5768;51.476;7.210;2022-08-01T03:52:10;100322.00;;;22.00
11424;BMP180;5768;51.476;7.210;2022-08-01T03:55:14;100317.00;;;22.00
11424;BMP180;5768;51.476;7.210;2022-08-01T03:58:18;100308.00;;;22.00
11424;BMP180;5768;51.476;7.210;2022-08-01T04:01:21;100302.00;;;22.00
11424;BMP180;5768;51.476;7.210;2022-08-01T04:04:26;100317.00;;;22.00
11424;BMP180;5768;51.476;7.210;2022-08-01T04:07:31;100312.00;;;21.90
11424;BMP180;5768;51.476;7.210;2022-08-01T04:10:33;100315.00;;;22.00
11424;BMP180;5768;51.476;7.210;2022-08-01T04:13:35;100322.00;;;22.00
11424;BMP180;5768;51.476;7.210;2022-08-01T04:16:38;100315.00;;;21.90
11424;BMP180;5768;51.476;7.210;2022-08-01T04:19:42;100321.00;;;21.90
11424;BMP180;5768;51.476;7.210;2022-08-01T04:22:44;100313.00;;;21.90
11424;BMP180;5768;51.476;7.210;2022-08-01T04:25:48;100318.00;;;21.90
11424;BMP180;5768;51.476;7.210;2022-08-01T04:28:52;100330.00;;;21.90
11424;BMP180;5768;51.476;7.210;2022-08-01T04:31:57;100330.00;;;21.90
11424;BMP180;5768;51.476;7.210;2022-08-01T04:35:06;100333.00;;;21.90
11424;BMP180;5768;51.476;7.210;2022-08-01T04:38:10;100323.00;;;21.90
11424;BMP180;5768;51.476;7.210;2022-08-01T04:41:15;100337.00;;;22.00
11424;BMP180;5768;51.476;7.210;2022-08-01T04:44:18;100339.00;;;22.00
11424;BMP180;5768;51.476;7.210;2022-08-01T04:47:22;100344.00;;;22.00
11424;BMP180;5768;51.476;7.210;2022-08-01T04:50:26;100344.00;;;22.10
11424;BMP180;5768;51.476;7.210;2022-08-01T04:53:29;100348.00;;;22.10
11424;BMP180;5768;51.476;7.210;2022-08-01T04:56:33;100356.00;;;22.20
11424;BMP180;5768;51.476;7.210;2022-08-01T04:59:40;100362.00;;;22.20
11424;BMP180;5768;51.476;7.210;2022-08-01T05:02:44;100355.00;;;22.20
11424;BMP180;5768;51.476;7.210;2022-08-01T05:05:49;100348.00;;;22.10
11424;BMP180;5768;51.476;7.210;2022-08-01T05:08:51;100352.00;;;22.20
11424;BMP180;5768;51.476;7.210;2022-08-01T05:11:54;100357.00;;;22.20
11424;BMP180;5768;51.476;7.210;2022-08-01T05:14:59;100356.00;;;22.30
11424;BMP180;5768;51.476;7.210;2022-08-01T05:18:03;100360.00;;;22.40
11424;BMP180;5768;51.476;7.210;2022-08-01T05:21:06;100350.00;;;22.40
11424;BMP180;5768;51.476;7.210;2022-08-01T05:24:09;100357.00;;;22.40
11424;BMP180;5768;51.476;7.210;2022-08-01T05:27:11;100364.00;;;22.50
11424;BMP180;5768;51.476;7.210;2022-08-01T05:30:14;100371.00;;;22.50
11424;BMP180;5768;51.476;7.210;2022-08-01T05:33:17;100379.00;;;22.60
11424;BMP180;5768;51.476;7.210;2022-08-01T05:36:23;100381.00;;;22.60
11424;BMP180;5768;51.476;7.210;2022-08-01T05:39:25;100377.00;;;22.60
11424;BMP180;5768;51.476;7.210;2022-08-01T05:42:28;100377.00;;;22.70
11424;BMP180;5768;51.476;7.210;2022-08-01T05:45:30;100377.00;;;22.80
11424;BMP180;5768;51.476;7.210;2022-08-01T05:48:32;100385.00;;;22.80
11424;BMP180;5768;51.476;7.210;2022-08-01T05:51:35;100390.00;;;22.80
11424;BMP180;5768;51.476;7.210;2022-08-01T05:54:37;100392.00;;;22.80
11424;BMP180;5768;51.476;7.210;2022-08-01T05:57:40;100392.00;;;22.70
11424;BMP180;5768;51.476;7.210;2022-08-01T06:00:44;100389.00;;;22.60
11424;BMP180;5768;51.476;7.210;2022-08-01T06:03:49;100390.00;;;22.60
11424;BMP180;5768;51.476;7.210;2022-08-01T06:06:52;100395.00;;;22.70
11424;BMP180;5768;51.476;7.210;2022-08-01T06:09:55;100392.00;;;22.80
11424;BMP180;5768;51.476;7.210;2022-08-01T06:12:57;100396.00;;;22.80
11424;BMP180;5768;51.476;7.210;2022-08-01T06:16:04;100393.00;;;22.90
11424;BMP180;5768;51.476;7.210;2022-08-01T06:19:07;100386.00;;;23.00
11424;BMP180;5768;51.476;7.210;2022-08-01T06:22:11;100392.00;;;23.10
11424;BMP180;5768;51.476;7.210;2022-08-01T06:25:13;100389.00;;;23.20
11424;BMP180;5768;51.476;7.210;2022-08-01T06:28:15;100399.00;;;23.30
11424;BMP180;5768;51.476;7.210;2022-08-01T06:31:17;100400.00;;;23.30
11424;BMP180;5768;51.476;7.210;2022-08-01T06:34:20;100395.00;;;23.30
11424;BMP180;5768;51.476;7.210;2022-08-01T06:37:28;100394.00;;;23.30
11424;BMP180;5768;51.476;7.210;2022-08-01T06:40:30;100394.00;;;23.30
11424;BMP180;5768;51.476;7.210;2022-08-01T06:43:32;100398.00;;;23.50
11424;BMP180;5768;51.476;7.210;2022-08-01T06:46:36;100396.00;;;23.60
11424;BMP180;5768;51.476;7.210;2022-08-01T06:49:39;100407.00;;;23.60
11424;BMP180;5768;51.476;7.210;2022-08-01T06:52:43;100398.00;;;23.50
11424;BMP180;5768;51.476;7.210;2022-08-01T06:55:45;100398.00;;;23.60
11424;BMP180;5768;51.476;7.210;2022-08-01T06:58:48;100412.00;;;23.60
11424;BMP180;5768;51.476;7.210;2022-08-01T07:01:51;100401.00;;;23.70
11424;BMP180;5768;51.476;7.210;2022-08-01T07:04:54;100405.00;;;24.00
11424;BMP180;5768;51.476;7.210;2022-08-01T07:08:00;100401.00;;;24.20
11424;BMP180;5768;51.476;7.210;2022-08-01T07:11:02;100399.00;;;24.20
11424;BMP180;5768;51.476;7.210;2022-08-01T07:14:05;100393.00;;;24.10
11424;BMP180;5768;51.476;7.210;2022-08-01T07:17:07;100392.00;;;24.00
11424;BMP180;5768;51.476;7.210;2022-08-01T07:20:11;100394.00;;;23.90
11424;BMP180;5768;51.476;7.210;2022-08-01T07:23:15;100385.00;;;23.80
11424;BMP180;5768;51.476;7.210;2022-08-01T07:26:17;100384.00;;;23.80
11424;BMP180;5768;51.476;7.210;2022-08-01T07:29:20;100383.00;;;24.10
11424;BMP180;5768;51.476;7.210;2022-08-01T07:32:22;100396.00;;;24.20
11424;BMP180;5768;51.476;7.210;2022-08-01T07:35:25;100391.00;;;24.40
11424;BMP180;5768;51.476;7.210;2022-08-01T07:38:29;100395.00;;;24.60
11424;BMP180;5768;51.476;7.210;2022-08-01T07:41:33;100398.00;;;25.00
11424;BMP180;5768;51.476;7.210;2022-08-01T07:44:36;100396.00;;;25.20
11424;BMP180;5768;51.476;7.210;2022-08-01T07:47:38;100395.00;;;25.40
11424;BMP180;5768;51.476;7.210;2022-08-01T07:50:40;100398.00;;;25.50
11424;BMP180;5768;51.476;7.210;2022-08-01T07:53:44;100395.00;;;25.40
11424;BMP180;5768;51.476;7.210;2022-08-01T07:56:48;100403.00;;;25.40
11424;BMP180;5768;51.476;7.210;2022-08-01T07:59:52;100409.00;;;25.40
11424;BMP180;5768;51.476;7.210;2022-08-01T08:02:54;100399.00;;;25.40
11424;BMP180;5768;51.476;7.210;2022-08-01T08:05:59;100404.00;;;25.40
11424;BMP180;5768;51.476;7.210;2022-08-01T08:09:04;100415.00;;;25.40
11424;BMP180;5768;51.476;7.210;2022-08-01T08:12:07;100410.00;;;25.40
11424;BMP180;5768;51.476;7.210;2022-08-01T08:15:10;100408.00;;;25.50
11424;BMP180;5768;51.476;7.210;2022-08-01T08:18:12;100415.00;;;25.60
11424;BMP180;5768;51.476;7.210;2022-08-01T08:21:14;100411.00;;;25.80
11424;BMP180;5768;51.476;7.210;2022-08-01T08:24:18;100417.00;;;25.90
11424;BMP180;5768;51.476;7.210;2022-08-01T08:27:24;100417.00;;;26.00
11424;BMP180;5768;51.476;7.210;2022-08-01T08:30:26;100423.00;;;26.20
11424;BMP180;5768;51.476;7.210;2022-08-01T08:33:30;100425.00;;;26.30
11424;BMP180;5768;51.476;7.210;2022-08-01T08:36:32;100421.00;;;26.40
11424;BMP180;5768;51.476;7.210;2022-08-01T08:39:36;100427.00;;;26.30
11424;BMP180;5768;51.476;7.210;2022-08-01T08:42:40;100427.00;;;26.30
11424;BMP180;5768;51.476;7.210;2022-08-01T08:45:43;100434.00;;;26.20
11424;BMP180;5768;51.476;7.210;2022-08-01T08:48:47;100441.00;;;26.20
11424;BMP180;5768;51.476;7.210;2022-08-01T08:51:52;100433.00;;;26.20
11424;BMP180;5768;51.476;7.210;2022-08-01T08:54:57;100436.00;;;26.40
11424;BMP180;5768;51.476;7.210;2022-08-01T08:58:00;100435.00;;;26.70
11424;BMP180;5768;51.476;7.210;2022-08-01T09:01:08;100435.00;;;26.70
11424;BMP180;5768;51.476;7.210;2022-08-01T09:04:11;100442.00;;;26.50
11424;BMP180;5768;51.476;7.210;2022-08-01T09:07:14;100445.00;;;26.20
11424;BMP180;5768;51.476;7.210;2022-08-01T09:10:18;100448.00;;;26.10
11424;BMP180;5768;51.476;7.210;2022-08-01T09:13:21;100455.00;;;26.00
11424;BMP180;5768;51.476;7.210;2022-08-01T09:16:23;100454.00;;;26.20
11424;BMP180;5768;51.476;7.210;2022-08-01T09:19:26;100454.00;;;26.40
11424;BMP180;5768;51.476;7.210;2022-08-01T09:22:36;100454.00;;;26.60
11424;BMP180;5768;51.476;7.210;2022-08-01T09:25:51;100459.00;;;26.60
11424;BMP180;5768;51.476;7.210;2022-08-01T09:28:55;100461.00;;;26.40
11424;BMP180;5768;51.476;7.210;2022-08-01T09:31:57;100467.00;;;26.20
11424;BMP180;5768;51.476;7.210;2022-08-01T09:35:25;100464.00;;;26.20
11424;BMP180;5768;51.476;7.210;2022-08-01T09:38:27;100463.00;;;26.20
11424;BMP180;5768;51.476;7.210;2022-08-01T09:41:32;100463.00;;;26.10
11424;BMP180;5768;51.476;7.210;2022-08-01T09:44:39;100462.00;;;26.20
11424;BMP180;5768;51.476;7.210;2022-08-01T09:47:43;100471.00;;;26.60
11424;BMP180;5768;51.476;7.210;2022-08-01T09:50:48;100468.00;;;27.30
11424;BMP180;5768;51.476;7.210;2022-08-01T09:53:50;100471.00;;;27.50
11424;BMP180;5768;51.476;7.210;2022-08-01T09:56:54;100476.00;;;27.30
11424;BMP180;5768;51.476;7.210;2022-08-01T10:00:17;100475.00;;;27.00
11424;BMP180;5768;51.476;7.210;2022-08-01T10:03:22;100475.00;;;26.80
11424;BMP180;5768;51.476;7.210;2022-08-01T10:06:25;100478.00;;;26.80
11424;BMP180;5768;51.476;7.210;2022-08-01T10:09:29;100482.00;;;26.70
11424;BMP180;5768;51.476;7.210;2022-08-01T10:12:33;100468.00;;;26.90
11424;BMP180;5768;51.476;7.210;2022-08-01T10:15:36;100467.00;;;27.30
11424;BMP180;5768;51.476;7.210;2022-08-01T10:18:41;100463.00;;;27.70
11424;BMP180;5768;51.476;7.210;2022-08-01T10:21:44;100464.00;;;27.90
11424;BMP180;5768;51.476;7.210;2022-08-01T10:24:55;100461.00;;;27.60
11424;BMP180;5768;51.476;7.210;2022-08-01T10:28:02;100460.00;;;27.50
11424;BMP180;5768;51.476;7.210;2022-08-01T10:31:08;100471.00;;;27.50
11424;BMP180;5768;51.476;7.210;2022-08-01T10:34:13;100469.00;;;27.40
11424;BMP180;5768;51.476;7.210;2022-08-01T10:37:16;100488.00;;;27.30
11424;BMP180;5768;51.476;7.210;2022-08-01T10:40:19;100485.00;;;27.20
11424;BMP180;5768;51.476;7.210;2022-08-01T10:43:23;100485.00;;;27.10
11424;BMP180;5768;51.476;7.210;2022-08-01T10:46:27;100488.00;;;27.10
11424;BMP180;5768;51.476;7.210;2022-08-01T10:49:37;100485.00;;;27.00
11424;BMP180;5768;51.476;7.210;2022-08-01T10:52:40;100486.00;;;26.90
11424;BMP180;5768;51.476;7.210;2022-08-01T10:55:52;100479.00;;;26.90
11424;BMP180;5768;51.476;7.210;2022-08-01T10:59:03;100479.00;;;27.10
11424;BMP180;5768;51.476;7.210;2022-08-01T11:02:06;100487.00;;;27.30
11424;BMP180;5768;51.476;7.210;2022-08-01T11:05:12;100492.00;;;27.50
11424;BMP180;5768;51.476;7.210;2022-08-01T11:08:22;100490.00;;;27.60
11424;BMP180;5768;51.476;7.210;2022-08-01T11:11:26;100485.00;;;27.90
11424;BMP180;5768;51.476;7.210;2022-08-01T11:14:30;100482.00;;;28.30
11424;BMP180;5768;51.476;7.210;2022-08-01T11:17:34;100485.00;;;28.80
11424;BMP180;5768;51.476;7.210;2022-08-01T11:20:36;100490.00;;;29.00
11424;BMP180;5768;51.476;7.210;2022-08-01T11:23:48;100481.00;;;29.10
11424;BMP180;5768;51.476;7.210;2022-08-01T11:30:30;100480.00;;;28.50
11424;BMP180;5768;51.476;7.210;2022-08-01T11:33:49;100480.00;;;28.20
11424;BMP180;5768;51.476;7.210;2022-08-01T11:37:22;100483.00;;;28.10
11424;BMP180;5768;51.476;7.210;2022-08-01T11:40:27;100478.00;;;28.10
11424;BMP180;5768;51.476;7.210;2022-08-01T11:43:30;100484.00;;;28.10
11424;BMP180;5768;51.476;7.210;2022-08-01T11:46:54;100489.00;;;28.40
11424;BMP180;5768;51.476;7.210;2022-08-01T11:49:57;100483.00;;;28.80
11424;BMP180;5768;51.476;7.210;2022-08-01T11:53:01;100479.00;;;29.30
11424;BMP180;5768;51.476;7.210;2022-08-01T11:56:05;100478.00;;;29.80
11424;BMP180;5768;51.476;7.210;2022-08-01T11:59:07;100485.00;;;29.90
11424;BMP180;5768;51.476;7.210;2022-08-01T12:02:18;100486.00;;;29.90
11424;BMP180;5768;51.476;7.210;2022-08-01T12:05:21;100480.00;;;29.80
11424;BMP180;5768;51.476;7.210;2022-08-01T12:08:27;100482.00;;;29.70
11424;BMP180;5768;51.476;7.210;2022-08-01T12:11:31;100493.00;;;29.90
11424;BMP180;5768;51.476;7.210;2022-08-01T12:14:33;100489.00;;;30.00
11424;BMP180;5768;51.476;7.210;2022-08-01T12:17:39;100490.00;;;29.70
11424;BMP180;5768;51.476;7.210;2022-08-01T12:20:43;100490.00;;;29.40
11424;BMP180;5768;51.476;7.210;2022-08-01T12:23:59;100491.00;;;29.40
11424;BMP180;5768;51.476;7.210;2022-08-01T12:27:01;100498.00;;;29.60
11424;BMP180;5768;51.476;7.210;2022-08-01T12:30:07;100492.00;;;30.00
11424;BMP180;5768;51.476;7.210;2022-08-01T12:33:11;100492.00;;;30.80
11424;BMP180;5768;51.476;7.210;2022-08-01T12:36:27;100504.00;;;31.30
11424;BMP180;5768;51.476;7.210;2022-08-01T12:39:32;100489.00;;;31.70
11424;BMP180;5768;51.476;7.210;2022-08-01T12:42:37;100484.00;;;32.40
11424;BMP180;5768;51.476;7.210;2022-08-01T12:45:42;100488.00;;;32.90
11424;BMP180;5768;51.476;7.210;2022-08-01T12:48:46;100492.00;;;32.00
11424;BMP180;5768;51.476;7.210;2022-08-01T12:51:51;100486.00;;;31.20
11424;BMP180;5768;51.476;7.210;2022-08-01T12:55:12;100492.00;;;30.60
11424;BMP180;5768;51.476;7.210;2022-08-01T12:58:15;100493.00;;;30.20
11424;BMP180;5768;51.476;7.210;2022-08-01T13:01:26;100495.00;;;30.10
11424;BMP180;5768;51.476;7.210;2022-08-01T13:04:30;100488.00;;;30.10
11424;BMP180;5768;51.476;7.210;2022-08-01T13:07:42;100494.00;;;30.40
11424;BMP180;5768;51.476;7.210;2022-08-01T13:10:44;100498.00;;;31.60
11424;BMP180;5768;51.476;7.210;2022-08-01T13:13:48;100493.00;;;33.00
11424;BMP180;5768;51.476;7.210;2022-08-01T13:16:51;100500.00;;;34.10
11424;BMP180;5768;51.476;7.210;2022-08-01T13:19:55;100493.00;;;35.00
11424;BMP180;5768;51.476;7.210;2022-08-01T13:23:14;100499.00;;;34.20
11424;BMP180;5768;51.476;7.210;2022-08-01T13:26:17;100499.00;;;33.00
11424;BMP180;5768;51.476;7.210;2022-08-01T13:29:21;100496.00;;;32.40
11424;BMP180;5768;51.476;7.210;2022-08-01T13:32:24;100508.00;;;32.40
11424;BMP180;5768;51.476;7.210;2022-08-01T13:35:28;100507.00;;;33.80
11424;BMP180;5768;51.476;7.210;2022-08-01T13:38:30;100517.00;;;34.20
11424;BMP180;5768;51.476;7.210;2022-08-01T13:41:51;100522.00;;;34.60
11424;BMP180;5768;51.476;7.210;2022-08-01T13:44:54;100514.00;;;34.50
11424;BMP180;5768;51.476;7.210;2022-08-01T13:47:56;100516.00;;;34.10
11424;BMP180;5768;51.476;7.210;2022-08-01T13:51:00;100516.00;;;34.70
11424;BMP180;5768;51.476;7.210;2022-08-01T13:54:03;100518.00;;;35.70
11424;BMP180;5768;51.476;7.210;2022-08-01T13:57:06;100517.00;;;36.30
11424;BMP180;5768;51.476;7.210;2022-08-01T14:00:10;100512.00;;;36.20
11424;BMP180;5768;51.476;7.210;2022-08-01T14:03:13;100507.00;;;36.90
11424;BMP180;5768;51.476;7.210;2022-08-01T14:06:19;100513.00;;;37.70
11424;BMP180;5768;51.476;7.210;2022-08-01T14:09:23;100511.00;;;37.00
11424;BMP180;5768;51.476;7.210;2022-08-01T14:12:25;100509.00;;;36.00
11424;BMP180;5768;51.476;7.210;2022-08-01T14:15:28;100500.00;;;35.60
11424;BMP180;5768;51.476;7.210;2022-08-01T14:18:30;100510.00;;;36.10
11424;BMP180;5768;51.476;7.210;2022-08-01T14:21:34;100513.00;;;36.30
11424;BMP180;5768;51.476;7.210;2022-08-01T14:24:36;100509.00;;;36.30
11424;BMP180;5768;51.476;7.210;2022-08-01T14:27:38;100509.00;;;35.90
11424;BMP180;5768;51.476;7.210;2022-08-01T14:30:42;100504.00;;;35.40
11424;BMP180;5768;51.476;7.210;2022-08-01T14:33:46;100491.00;;;35.10
11424;BMP180;5768;51.476;7.210;2022-08-01T14:36:49;100509.00;;;34.70
11424;BMP180;5768;51.476;7.210;2022-08-01T14:39:54;100503.00;;;34.40
11424;BMP180;5768;51.476;7.210;2022-08-01T14:42:59;100507.00;;;34.30
11424;BMP180;5768;51.476;7.210;2022-08-01T14:46:03;100510.00;;;34.20
11424;BMP180;5768;51.476;7.210;2022-08-01T14:49:06;100507.00;;;33.90
11424;BMP180;5768;51.476;7.210;2022-08-01T14:52:09;100503.00;;;33.80
11424;BMP180;5768;51.476;7.210;2022-08-01T14:55:13;100507.00;;;34.30
11424;BMP180;5768;51.476;7.210;2022-08-01T14:58:15;100500.00;;;34.90
11424;BMP180;5768;51.476;7.210;2022-08-01T15:01:17;100498.00;;;35.50
11424;BMP180;5768;51.476;7.210;2022-08-01T15:04:19;100507.00;;;35.10
11424;BMP180;5768;51.476;7.210;2022-08-01T15:07:22;100504.00;;;34.60
11424;BMP180;5768;51.476;7.210;2022-08-01T15:10:25;100507.00;;;34.00
11424;BMP180;5768;51.476;7.210;2022-08-01T15:13:27;100502.00;;;33.40
11424;BMP180;5768;51.476;7.210;2022-08-01T15:16:29;100508.00;;;32.80
11424;BMP180;5768;51.476;7.210;2022-08-01T15:19:32;100512.00;;;32.30
11424;BMP180;5768;51.476;7.210;2022-08-01T15:22:35;100504.00;;;31.80
11424;BMP180;5768;51.476;7.210;2022-08-01T15:25:37;100512.00;;;31.60
11424;BMP180;5768;51.476;7.210;2022-08-01T15:28:39;100512.00;;;31.60
11424;BMP180;5768;51.476;7.210;2022-08-01T15:31:42;100515.00;;;32.30
11424;BMP180;5768;51.476;7.210;2022-08-01T15:34:44;100514.00;;;32.90
11424;BMP180;5768;51.476;7.210;2022-08-01T15:37:48;100511.00;;;32.60
11424;BMP180;5768;51.476;7.210;2022-08-01T15:40:50;100508.00;;;32.30
11424;BMP180;5768;51.476;7.210;2022-08-01T15:43:52;100512.00;;;31.90
11424;BMP180;5768;51.476;7.210;2022-08-01T15:46:54;100509.00;;;31.70
11424;BMP180;5768;51.476;7.210;2022-08-01T15:49:56;100519.00;;;31.60
11424;BMP180;5768;51.476;7.210;2022-08-01T15:53:03;100501.00;;;31.40
11424;BMP180;5768;51.476;7.210;2022-08-01T15:56:06;100512.00;;;31.80
11424;BMP180;5768;51.476;7.210;2022-08-01T15:59:09;100512.00;;;32.40
11424;BMP180;5768;51.476;7.210;2022-08-01T16:02:11;100515.00;;;32.20
11424;BMP180;5768;51.476;7.210;2022-08-01T16:05:14;100499.00;;;31.80
11424;BMP180;5768;51.476;7.210;2022-08-01T16:08:18;100513.00;;;31.40
11424;BMP180;5768;51.476;7.210;2022-08-01T16:11:20;100508.00;;;31.00
11424;BMP180;5768;51.476;7.210;2022-08-01T16:14:23;100504.00;;;31.20
11424;BMP180;5768;51.476;7.210;2022-08-01T16:17:26;100504.00;;;32.00
11424;BMP180;5768;51.476;7.210;2022-08-01T16:20:28;100507.00;;;31.60
11424;BMP180;5768;51.476;7.210;2022-08-01T16:23:32;100510.00;;;31.20
11424;BMP180;5768;51.476;7.210;2022-08-01T16:26:34;100510.00;;;30.70
11424;BMP180;5768;51.476;7.210;2022-08-01T16:29:37;100509.00;;;30.40
11424;BMP180;5768;51.476;7.210;2022-08-01T16:32:39;100497.00;;;30.10
11424;BMP180;5768;51.476;7.210;2022-08-01T16:35:41;100503.00;;;30.00
11424;BMP180;5768;51.476;7.210;2022-08-01T16:38:45;100511.00;;;30.10
11424;BMP180;5768;51.476;7.210;2022-08-01T16:41:48;100501.00;;;30.80
11424;BMP180;5768;51.476;7.210;2022-08-01T16:44:50;100505.00;;;30.90
11424;BMP180;5768;51.476;7.210;2022-08-01T16:47:52;100514.00;;;31.40
11424;BMP180;5768;51.476;7.210;2022-08-01T16:50:56;100509.00;;;32.80
11424;BMP180;5768;51.476;7.210;2022-08-01T16:54:00;100510.00;;;33.10
11424;BMP180;5768;51.476;7.210;2022-08-01T16:57:02;100520.00;;;33.00
11424;BMP180;5768;51.476;7.210;2022-08-01T17:00:07;100517.00;;;32.70
11424;BMP180;5768;51.476;7.210;2022-08-01T17:03:10;100510.00;;;32.20
11424;BMP180;5768;51.476;7.210;2022-08-01T17:06:12;100516.00;;;31.90
11424;BMP180;5768;51.476;7.210;2022-08-01T17:09:16;100523.00;;;31.30
11424;BMP180;5768;51.476;7.210;2022-08-01T17:12:18;100511.00;;;32.20
11424;BMP180;5768;51.476;7.210;2022-08-01T17:15:21;100518.00;;;32.90
11424;BMP180;5768;51.476;7.210;2022-08-01T17:18:23;100521.00;;;32.60
11424;BMP180;5768;51.476;7.210;2022-08-01T17:21:25;100514.00;;;32.10
11424;BMP180;5768;51.476;7.210;2022-08-01T17:24:29;100510.00;;;31.40
11424;BMP180;5768;51.476;7.210;2022-08-01T17:27:31;100524.00;;;31.20
11424;BMP180;5768;51.476;7.210;2022-08-01T17:30:34;100521.00;;;31.30
11424;BMP180;5768;51.476;7.210;2022-08-01T17:33:39;100516.00;;;30.90
11424;BMP180;5768;51.476;7.210;2022-08-01T17:36:41;100522.00;;;30.20
11424;BMP180;5768;51.476;7.210;2022-08-01T17:39:45;100520.00;;;29.80
11424;BMP180;5768;51.476;7.210;2022-08-01T17:42:47;100519.00;;;29.40
11424;BMP180;5768;51.476;7.210;2022-08-01T17:45:49;100520.00;;;28.80